sensor_id;sensor_type;location;lat;lon;timestamp;P1;durP1;ratioP1;P2;durP2;ratioP2
46653;SDS011;38960;51.074;17.004;2024-02-16T00:00:12;21.45;;;13.10;;
46653;SDS011;38960;51.074;17.004;2024-02-16T00:02:39;20.63;;;12.95;;
46653;SDS011;38960;51.074;17.004;2024-02-16T00:05:06;21.00;;;13.35;;
46653;SDS011;38960;51.074;17.004;2024-02-16T00:07:35;22.98;;;13.30;;
46653;SDS011;38960;51.074;17.004;2024-02-16T00:10:02;23.30;;;14.00;;
46653;SDS011;38960;51.074;17.004;2024-02-16T00:12:32;27.25;;;13.45;;
46653;SDS011;38960;51.074;17.004;2024-02-16T00:15:01;23.20;;;13.75;;
46653;SDS011;38960;51.074;17.004;2024-02-16T00:17:27;24.58;;;13.60;;
46653;SDS011;38960;51.074;17.004;2024-02-16T00:19:53;23.88;;;14.45;;
46653;SDS011;38960;51.074;17.004;2024-02-16T00:22:22;20.13;;;12.85;;
46653;SDS011;38960;51.074;17.004;2024-02-16T00:24:48;24.10;;;14.00;;
46653;SDS011;38960;51.074;17.004;2024-02-16T00:27:14;18.70;;;12.82;;
46653;SDS011;38960;51.074;17.004;2024-02-16T00:29:40;24.95;;;14.13;;
46653;SDS011;38960;51.074;17.004;2024-02-16T00:32:07;21.52;;;13.18;;
46653;SDS011;38960;51.074;17.004;2024-02-16T00:34:33;19.63;;;12.32;;
46653;SDS011;38960;51.074;17.004;2024-02-16T00:37:00;23.77;;;14.32;;
46653;SDS011;38960;51.074;17.004;2024-02-16T00:39:25;23.48;;;13.82;;
46653;SDS011;38960;51.074;17.004;2024-02-16T00:41:51;22.63;;;13.95;;
46653;SDS011;38960;51.074;17.004;2024-02-16T00:44:17;21.13;;;13.60;;
46653;SDS011;38960;51.074;17.004;2024-02-16T00:46:43;21.52;;;13.68;;
46653;SDS011;38960;51.074;17.004;2024-02-16T00:49:09;25.55;;;13.27;;
46653;SDS011;38960;51.074;17.004;2024-02-16T00:51:35;25.17;;;13.82;;
46653;SDS011;38960;51.074;17.004;2024-02-16T00:54:04;20.17;;;12.98;;
46653;SDS011;38960;51.074;17.004;2024-02-16T00:56:30;22.10;;;13.13;;
46653;SDS011;38960;51.074;17.004;2024-02-16T00:58:57;21.35;;;13.63;;
46653;SDS011;38960;51.074;17.004;2024-02-16T01:01:22;24.02;;;14.52;;
46653;SDS011;38960;51.074;17.004;2024-02-16T01:03:49;26.92;;;13.98;;
46653;SDS011;38960;51.074;17.004;2024-02-16T01:06:17;23.10;;;14.20;;
46653;SDS011;38960;51.074;17.004;2024-02-16T01:08:43;21.65;;;13.38;;
46653;SDS011;38960;51.074;17.004;2024-02-16T01:11:08;26.17;;;14.90;;
46653;SDS011;38960;51.074;17.004;2024-02-16T01:13:34;23.00;;;14.45;;
46653;SDS011;38960;51.074;17.004;2024-02-16T01:15:59;25.25;;;15.55;;
46653;SDS011;38960;51.074;17.004;2024-02-16T01:18:28;22.20;;;14.73;;
46653;SDS011;38960;51.074;17.004;2024-02-16T01:20:54;30.52;;;16.67;;
46653;SDS011;38960;51.074;17.004;2024-02-16T01:23:20;22.02;;;14.45;;
46653;SDS011;38960;51.074;17.004;2024-02-16T01:25:46;21.65;;;15.10;;
46653;SDS011;38960;51.074;17.004;2024-02-16T01:28:12;24.67;;;15.25;;
46653;SDS011;38960;51.074;17.004;2024-02-16T01:30:38;25.95;;;15.63;;
46653;SDS011;38960;51.074;17.004;2024-02-16T01:33:04;24.77;;;15.52;;
46653;SDS011;38960;51.074;17.004;2024-02-16T01:35:31;25.45;;;16.48;;
46653;SDS011;38960;51.074;17.004;2024-02-16T01:37:57;25.67;;;15.93;;
46653;SDS011;38960;51.074;17.004;2024-02-16T01:40:22;26.17;;;15.35;;
46653;SDS011;38960;51.074;17.004;2024-02-16T01:42:51;22.05;;;14.00;;
46653;SDS011;38960;51.074;17.004;2024-02-16T01:45:18;23.42;;;15.70;;
46653;SDS011;38960;51.074;17.004;2024-02-16T01:47:44;30.10;;;16.33;;
46653;SDS011;38960;51.074;17.004;2024-02-16T01:50:12;26.17;;;16.30;;
46653;SDS011;38960;51.074;17.004;2024-02-16T01:52:39;24.45;;;14.20;;
46653;SDS011;38960;51.074;17.004;2024-02-16T01:55:05;25.52;;;14.85;;
46653;SDS011;38960;51.074;17.004;2024-02-16T01:57:35;26.17;;;15.15;;
46653;SDS011;38960;51.074;17.004;2024-02-16T02:00:01;23.30;;;15.77;;
46653;SDS011;38960;51.074;17.004;2024-02-16T02:02:30;23.58;;;15.73;;
46653;SDS011;38960;51.074;17.004;2024-02-16T02:04:55;26.95;;;16.27;;
46653;SDS011;38960;51.074;17.004;2024-02-16T02:07:24;23.80;;;15.77;;
46653;SDS011;38960;51.074;17.004;2024-02-16T02:09:54;23.15;;;14.90;;
46653;SDS011;38960;51.074;17.004;2024-02-16T02:12:19;24.55;;;14.88;;
46653;SDS011;38960;51.074;17.004;2024-02-16T02:14:45;27.52;;;16.00;;
46653;SDS011;38960;51.074;17.004;2024-02-16T02:17:12;27.73;;;16.67;;
46653;SDS011;38960;51.074;17.004;2024-02-16T02:19:39;27.38;;;17.30;;
46653;SDS011;38960;51.074;17.004;2024-02-16T02:22:23;22.23;;;14.30;;
46653;SDS011;38960;51.074;17.004;2024-02-16T02:24:49;27.98;;;15.95;;
46653;SDS011;38960;51.074;17.004;2024-02-16T02:27:21;22.65;;;14.98;;
46653;SDS011;38960;51.074;17.004;2024-02-16T02:29:47;21.10;;;14.68;;
46653;SDS011;38960;51.074;17.004;2024-02-16T02:32:12;22.58;;;14.98;;
46653;SDS011;38960;51.074;17.004;2024-02-16T02:34:38;24.05;;;14.30;;
46653;SDS011;38960;51.074;17.004;2024-02-16T02:37:04;21.73;;;13.80;;
46653;SDS011;38960;51.074;17.004;2024-02-16T02:39:31;23.92;;;16.00;;
46653;SDS011;38960;51.074;17.004;2024-02-16T02:42:13;21.38;;;13.80;;
46653;SDS011;38960;51.074;17.004;2024-02-16T02:44:39;21.80;;;14.02;;
46653;SDS011;38960;51.074;17.004;2024-02-16T02:47:05;24.48;;;14.32;;
46653;SDS011;38960;51.074;17.004;2024-02-16T02:49:49;23.65;;;15.80;;
46653;SDS011;38960;51.074;17.004;2024-02-16T02:52:15;21.00;;;13.82;;
46653;SDS011;38960;51.074;17.004;2024-02-16T02:54:41;23.42;;;13.88;;
46653;SDS011;38960;51.074;17.004;2024-02-16T02:57:06;20.58;;;14.13;;
46653;SDS011;38960;51.074;17.004;2024-02-16T02:59:32;21.00;;;13.77;;
46653;SDS011;38960;51.074;17.004;2024-02-16T03:02:15;22.70;;;14.70;;
46653;SDS011;38960;51.074;17.004;2024-02-16T03:04:41;22.52;;;14.18;;
46653;SDS011;38960;51.074;17.004;2024-02-16T03:07:08;18.38;;;13.05;;
46653;SDS011;38960;51.074;17.004;2024-02-16T03:09:33;20.70;;;13.65;;
46653;SDS011;38960;51.074;17.004;2024-02-16T03:11:59;19.88;;;13.18;;
46653;SDS011;38960;51.074;17.004;2024-02-16T03:14:24;20.98;;;14.35;;
46653;SDS011;38960;51.074;17.004;2024-02-16T03:16:50;20.98;;;14.20;;
46653;SDS011;38960;51.074;17.004;2024-02-16T03:19:15;18.80;;;13.68;;
46653;SDS011;38960;51.074;17.004;2024-02-16T03:21:41;19.65;;;14.90;;
46653;SDS011;38960;51.074;17.004;2024-02-16T03:24:07;22.08;;;15.20;;
46653;SDS011;38960;51.074;17.004;2024-02-16T03:26:33;23.30;;;14.98;;
46653;SDS011;38960;51.074;17.004;2024-02-16T03:28:59;24.17;;;15.60;;
46653;SDS011;38960;51.074;17.004;2024-02-16T03:31:26;22.67;;;14.43;;
46653;SDS011;38960;51.074;17.004;2024-02-16T03:33:51;23.95;;;14.32;;
46653;SDS011;38960;51.074;17.004;2024-02-16T03:36:18;23.70;;;15.05;;
46653;SDS011;38960;51.074;17.004;2024-02-16T03:41:28;22.30;;;14.25;;
46653;SDS011;38960;51.074;17.004;2024-02-16T03:43:54;20.50;;;14.57;;
46653;SDS011;38960;51.074;17.004;2024-02-16T03:46:19;23.98;;;15.82;;
46653;SDS011;38960;51.074;17.004;2024-02-16T03:48:45;23.05;;;14.73;;
46653;SDS011;38960;51.074;17.004;2024-02-16T03:51:23;21.77;;;14.48;;
46653;SDS011;38960;51.074;17.004;2024-02-16T03:57:39;18.45;;;12.38;;
46653;SDS011;38960;51.074;17.004;2024-02-16T04:00:05;22.02;;;14.45;;
46653;SDS011;38960;51.074;17.004;2024-02-16T04:02:38;20.95;;;13.52;;
46653;SDS011;38960;51.074;17.004;2024-02-16T04:08:33;24.30;;;13.98;;
46653;SDS011;38960;51.074;17.004;2024-02-16T04:10:59;19.70;;;14.18;;
46653;SDS011;38960;51.074;17.004;2024-02-16T04:13:24;22.42;;;14.45;;
46653;SDS011;38960;51.074;17.004;2024-02-16T04:15:50;24.38;;;14.80;;
46653;SDS011;38960;51.074;17.004;2024-02-16T04:18:20;24.58;;;15.27;;
46653;SDS011;38960;51.074;17.004;2024-02-16T04:20:46;25.33;;;16.35;;
46653;SDS011;38960;51.074;17.004;2024-02-16T04:23:12;28.42;;;17.27;;
46653;SDS011;38960;51.074;17.004;2024-02-16T04:25:37;26.90;;;17.77;;
46653;SDS011;38960;51.074;17.004;2024-02-16T04:28:03;25.85;;;17.30;;
46653;SDS011;38960;51.074;17.004;2024-02-16T04:30:29;26.95;;;17.92;;
46653;SDS011;38960;51.074;17.004;2024-02-16T04:32:57;27.95;;;18.38;;
46653;SDS011;38960;51.074;17.004;2024-02-16T04:35:22;28.55;;;19.58;;
46653;SDS011;38960;51.074;17.004;2024-02-16T04:37:48;31.77;;;19.88;;
46653;SDS011;38960;51.074;17.004;2024-02-16T04:40:14;29.15;;;19.00;;
46653;SDS011;38960;51.074;17.004;2024-02-16T04:42:40;32.10;;;20.00;;
46653;SDS011;38960;51.074;17.004;2024-02-16T04:45:07;29.60;;;19.33;;
46653;SDS011;38960;51.074;17.004;2024-02-16T04:47:33;34.53;;;20.58;;
46653;SDS011;38960;51.074;17.004;2024-02-16T04:49:58;29.92;;;21.10;;
46653;SDS011;38960;51.074;17.004;2024-02-16T04:52:24;32.78;;;21.20;;
46653;SDS011;38960;51.074;17.004;2024-02-16T04:54:49;36.00;;;21.55;;
46653;SDS011;38960;51.074;17.004;2024-02-16T04:57:15;31.35;;;20.73;;
46653;SDS011;38960;51.074;17.004;2024-02-16T04:59:40;31.75;;;21.45;;
46653;SDS011;38960;51.074;17.004;2024-02-16T05:02:06;31.80;;;20.73;;
46653;SDS011;38960;51.074;17.004;2024-02-16T05:04:32;33.67;;;21.42;;
46653;SDS011;38960;51.074;17.004;2024-02-16T05:06:58;35.17;;;21.20;;
46653;SDS011;38960;51.074;17.004;2024-02-16T05:09:23;31.33;;;21.42;;
46653;SDS011;38960;51.074;17.004;2024-02-16T05:11:51;37.60;;;22.48;;
46653;SDS011;38960;51.074;17.004;2024-02-16T05:14:17;33.20;;;22.60;;
46653;SDS011;38960;51.074;17.004;2024-02-16T05:16:43;37.65;;;22.92;;
46653;SDS011;38960;51.074;17.004;2024-02-16T05:19:09;30.30;;;20.27;;
46653;SDS011;38960;51.074;17.004;2024-02-16T05:21:34;33.58;;;21.50;;
46653;SDS011;38960;51.074;17.004;2024-02-16T05:24:00;35.05;;;21.63;;
46653;SDS011;38960;51.074;17.004;2024-02-16T05:26:26;32.70;;;21.17;;
46653;SDS011;38960;51.074;17.004;2024-02-16T05:28:51;32.55;;;21.30;;
46653;SDS011;38960;51.074;17.004;2024-02-16T05:31:17;32.38;;;21.23;;
46653;SDS011;38960;51.074;17.004;2024-02-16T05:33:47;32.60;;;21.55;;
46653;SDS011;38960;51.074;17.004;2024-02-16T05:38:45;30.48;;;21.27;;
46653;SDS011;38960;51.074;17.004;2024-02-16T05:41:13;33.63;;;20.10;;
46653;SDS011;38960;51.074;17.004;2024-02-16T05:43:39;39.45;;;20.60;;
46653;SDS011;38960;51.074;17.004;2024-02-16T05:46:04;30.65;;;20.50;;
46653;SDS011;38960;51.074;17.004;2024-02-16T05:48:33;32.65;;;19.90;;
46653;SDS011;38960;51.074;17.004;2024-02-16T05:51:02;28.50;;;18.95;;
46653;SDS011;38960;51.074;17.004;2024-02-16T05:53:33;31.48;;;20.52;;
46653;SDS011;38960;51.074;17.004;2024-02-16T05:55:59;35.00;;;20.08;;
46653;SDS011;38960;51.074;17.004;2024-02-16T05:58:25;36.35;;;19.90;;
46653;SDS011;38960;51.074;17.004;2024-02-16T06:00:51;29.35;;;19.23;;
46653;SDS011;38960;51.074;17.004;2024-02-16T07:17:11;20.13;;;13.18;;
46653;SDS011;38960;51.074;17.004;2024-02-16T07:19:37;18.38;;;12.88;;
46653;SDS011;38960;51.074;17.004;2024-02-16T07:22:03;19.95;;;12.57;;
46653;SDS011;38960;51.074;17.004;2024-02-16T07:24:28;18.90;;;11.10;;
46653;SDS011;38960;51.074;17.004;2024-02-16T07:26:56;16.23;;;11.23;;
46653;SDS011;38960;51.074;17.004;2024-02-16T07:29:25;16.05;;;10.57;;
46653;SDS011;38960;51.074;17.004;2024-02-16T07:31:50;15.57;;;10.20;;
46653;SDS011;38960;51.074;17.004;2024-02-16T07:45:55;15.27;;;9.20;;
46653;SDS011;38960;51.074;17.004;2024-02-16T08:02:19;15.35;;;9.30;;
46653;SDS011;38960;51.074;17.004;2024-02-16T08:04:48;15.23;;;10.20;;
46653;SDS011;38960;51.074;17.004;2024-02-16T08:07:17;12.68;;;8.73;;
46653;SDS011;38960;51.074;17.004;2024-02-16T08:09:43;16.98;;;8.82;;
46653;SDS011;38960;51.074;17.004;2024-02-16T08:12:12;15.63;;;8.88;;
46653;SDS011;38960;51.074;17.004;2024-02-16T08:14:41;15.95;;;9.63;;
46653;SDS011;38960;51.074;17.004;2024-02-16T08:17:08;13.07;;;8.93;;
46653;SDS011;38960;51.074;17.004;2024-02-16T08:19:35;14.32;;;8.25;;
46653;SDS011;38960;51.074;17.004;2024-02-16T08:22:08;15.20;;;9.10;;
46653;SDS011;38960;51.074;17.004;2024-02-16T08:24:36;16.50;;;9.40;;
46653;SDS011;38960;51.074;17.004;2024-02-16T08:27:02;15.68;;;7.90;;
46653;SDS011;38960;51.074;17.004;2024-02-16T08:29:29;12.30;;;8.15;;
46653;SDS011;38960;51.074;17.004;2024-02-16T08:31:55;13.65;;;8.77;;
46653;SDS011;38960;51.074;17.004;2024-02-16T08:34:20;10.95;;;8.20;;
46653;SDS011;38960;51.074;17.004;2024-02-16T08:36:47;12.70;;;8.45;;
46653;SDS011;38960;51.074;17.004;2024-02-16T08:39:13;11.13;;;8.52;;
46653;SDS011;38960;51.074;17.004;2024-02-16T08:42:26;12.45;;;8.13;;
46653;SDS011;38960;51.074;17.004;2024-02-16T08:44:51;14.73;;;7.78;;
46653;SDS011;38960;51.074;17.004;2024-02-16T08:47:17;15.18;;;9.30;;
46653;SDS011;38960;51.074;17.004;2024-02-16T08:49:43;17.15;;;8.75;;
46653;SDS011;38960;51.074;17.004;2024-02-16T08:52:09;10.48;;;7.95;;
46653;SDS011;38960;51.074;17.004;2024-02-16T08:54:34;19.50;;;7.63;;
46653;SDS011;38960;51.074;17.004;2024-02-16T08:57:00;17.20;;;9.30;;
46653;SDS011;38960;51.074;17.004;2024-02-16T08:59:25;15.45;;;8.45;;
46653;SDS011;38960;51.074;17.004;2024-02-16T09:01:52;11.13;;;8.15;;
46653;SDS011;38960;51.074;17.004;2024-02-16T09:04:18;12.80;;;7.85;;
46653;SDS011;38960;51.074;17.004;2024-02-16T09:06:43;12.30;;;8.00;;
46653;SDS011;38960;51.074;17.004;2024-02-16T09:09:09;9.70;;;6.95;;
46653;SDS011;38960;51.074;17.004;2024-02-16T09:11:35;12.73;;;7.65;;
46653;SDS011;38960;51.074;17.004;2024-02-16T09:14:01;12.93;;;7.03;;
46653;SDS011;38960;51.074;17.004;2024-02-16T09:16:26;13.00;;;7.53;;
46653;SDS011;38960;51.074;17.004;2024-02-16T09:18:52;13.63;;;6.65;;
46653;SDS011;38960;51.074;17.004;2024-02-16T09:21:17;9.30;;;6.47;;
46653;SDS011;38960;51.074;17.004;2024-02-16T09:23:43;11.00;;;7.07;;
46653;SDS011;38960;51.074;17.004;2024-02-16T09:26:08;16.23;;;7.50;;
46653;SDS011;38960;51.074;17.004;2024-02-16T09:28:38;9.48;;;6.43;;
46653;SDS011;38960;51.074;17.004;2024-02-16T09:31:06;10.93;;;6.85;;
46653;SDS011;38960;51.074;17.004;2024-02-16T09:33:33;12.13;;;6.70;;
46653;SDS011;38960;51.074;17.004;2024-02-16T09:35:58;9.98;;;6.78;;
46653;SDS011;38960;51.074;17.004;2024-02-16T09:38:24;12.27;;;6.15;;
46653;SDS011;38960;51.074;17.004;2024-02-16T09:40:50;11.25;;;6.68;;
46653;SDS011;38960;51.074;17.004;2024-02-16T09:43:25;12.65;;;7.00;;
46653;SDS011;38960;51.074;17.004;2024-02-16T09:45:53;11.02;;;7.10;;
46653;SDS011;38960;51.074;17.004;2024-02-16T09:48:24;10.40;;;6.63;;
46653;SDS011;38960;51.074;17.004;2024-02-16T09:50:53;11.70;;;6.07;;
46653;SDS011;38960;51.074;17.004;2024-02-16T09:53:19;9.77;;;6.28;;
46653;SDS011;38960;51.074;17.004;2024-02-16T09:55:47;9.07;;;5.75;;
46653;SDS011;38960;51.074;17.004;2024-02-16T09:58:13;16.17;;;6.88;;
46653;SDS011;38960;51.074;17.004;2024-02-16T10:00:47;10.85;;;6.25;;
46653;SDS011;38960;51.074;17.004;2024-02-16T10:05:48;11.57;;;6.25;;
46653;SDS011;38960;51.074;17.004;2024-02-16T10:08:15;14.10;;;6.78;;
46653;SDS011;38960;51.074;17.004;2024-02-16T10:10:40;11.07;;;6.68;;
46653;SDS011;38960;51.074;17.004;2024-02-16T10:13:07;13.40;;;5.10;;
46653;SDS011;38960;51.074;17.004;2024-02-16T10:15:33;8.02;;;4.65;;
46653;SDS011;38960;51.074;17.004;2024-02-16T10:20:28;7.63;;;4.97;;
46653;SDS011;38960;51.074;17.004;2024-02-16T10:23:07;13.65;;;5.38;;
46653;SDS011;38960;51.074;17.004;2024-02-16T10:25:34;8.82;;;4.60;;
46653;SDS011;38960;51.074;17.004;2024-02-16T10:28:04;8.88;;;3.85;;
46653;SDS011;38960;51.074;17.004;2024-02-16T10:32:59;6.82;;;3.83;;
46653;SDS011;38960;51.074;17.004;2024-02-16T10:35:25;10.60;;;4.55;;
46653;SDS011;38960;51.074;17.004;2024-02-16T10:37:54;6.47;;;4.15;;
46653;SDS011;38960;51.074;17.004;2024-02-16T10:40:21;7.82;;;3.70;;
46653;SDS011;38960;51.074;17.004;2024-02-16T10:42:49;6.07;;;3.85;;
46653;SDS011;38960;51.074;17.004;2024-02-16T10:45:16;6.78;;;4.25;;
46653;SDS011;38960;51.074;17.004;2024-02-16T10:47:42;6.35;;;3.63;;
46653;SDS011;38960;51.074;17.004;2024-02-16T10:50:07;7.93;;;3.17;;
46653;SDS011;38960;51.074;17.004;2024-02-16T10:52:35;6.43;;;3.70;;
46653;SDS011;38960;51.074;17.004;2024-02-16T10:55:01;5.50;;;3.10;;
46653;SDS011;38960;51.074;17.004;2024-02-16T10:57:29;8.30;;;3.20;;
46653;SDS011;38960;51.074;17.004;2024-02-16T10:59:54;6.25;;;3.60;;
46653;SDS011;38960;51.074;17.004;2024-02-16T11:02:21;10.07;;;3.95;;
46653;SDS011;38960;51.074;17.004;2024-02-16T11:04:47;4.40;;;3.10;;
46653;SDS011;38960;51.074;17.004;2024-02-16T11:07:16;6.45;;;3.60;;
46653;SDS011;38960;51.074;17.004;2024-02-16T11:09:43;5.70;;;3.42;;
46653;SDS011;38960;51.074;17.004;2024-02-16T11:12:11;7.55;;;3.30;;
46653;SDS011;38960;51.074;17.004;2024-02-16T11:17:08;6.05;;;3.75;;
46653;SDS011;38960;51.074;17.004;2024-02-16T11:19:39;9.80;;;3.70;;
46653;SDS011;38960;51.074;17.004;2024-02-16T11:22:06;5.63;;;3.45;;
46653;SDS011;38960;51.074;17.004;2024-02-16T11:24:36;6.32;;;3.47;;
46653;SDS011;38960;51.074;17.004;2024-02-16T11:27:02;7.85;;;3.67;;
46653;SDS011;38960;51.074;17.004;2024-02-16T11:29:33;12.48;;;3.00;;
46653;SDS011;38960;51.074;17.004;2024-02-16T11:32:02;4.72;;;2.85;;
46653;SDS011;38960;51.074;17.004;2024-02-16T11:34:28;9.77;;;3.10;;
46653;SDS011;38960;51.074;17.004;2024-02-16T11:36:55;7.40;;;3.58;;
46653;SDS011;38960;51.074;17.004;2024-02-16T11:39:21;9.25;;;3.83;;
46653;SDS011;38960;51.074;17.004;2024-02-16T11:41:47;6.18;;;3.88;;
46653;SDS011;38960;51.074;17.004;2024-02-16T11:44:13;7.47;;;4.10;;
46653;SDS011;38960;51.074;17.004;2024-02-16T11:46:41;6.50;;;3.20;;
46653;SDS011;38960;51.074;17.004;2024-02-16T11:49:07;10.32;;;3.15;;
46653;SDS011;38960;51.074;17.004;2024-02-16T11:51:33;9.35;;;3.42;;
46653;SDS011;38960;51.074;17.004;2024-02-16T11:53:59;7.53;;;3.75;;
46653;SDS011;38960;51.074;17.004;2024-02-16T11:56:25;9.70;;;3.20;;
46653;SDS011;38960;51.074;17.004;2024-02-16T11:58:51;7.13;;;3.22;;
46653;SDS011;38960;51.074;17.004;2024-02-16T12:01:17;10.52;;;3.55;;
46653;SDS011;38960;51.074;17.004;2024-02-16T12:03:43;11.00;;;4.32;;
46653;SDS011;38960;51.074;17.004;2024-02-16T12:06:08;4.53;;;3.00;;
46653;SDS011;38960;51.074;17.004;2024-02-16T12:08:34;5.32;;;3.72;;
46653;SDS011;38960;51.074;17.004;2024-02-16T12:11:00;8.00;;;3.35;;
46653;SDS011;38960;51.074;17.004;2024-02-16T12:13:27;6.97;;;3.38;;
46653;SDS011;38960;51.074;17.004;2024-02-16T12:15:52;9.15;;;3.72;;
46653;SDS011;38960;51.074;17.004;2024-02-16T12:18:22;6.45;;;3.35;;
46653;SDS011;38960;51.074;17.004;2024-02-16T12:21:00;4.35;;;3.28;;
46653;SDS011;38960;51.074;17.004;2024-02-16T12:23:27;6.30;;;3.58;;
46653;SDS011;38960;51.074;17.004;2024-02-16T12:25:53;5.15;;;3.40;;
46653;SDS011;38960;51.074;17.004;2024-02-16T12:28:19;7.22;;;3.28;;
46653;SDS011;38960;51.074;17.004;2024-02-16T12:30:49;7.03;;;4.37;;
46653;SDS011;38960;51.074;17.004;2024-02-16T12:33:15;5.78;;;3.20;;
46653;SDS011;38960;51.074;17.004;2024-02-16T12:35:41;6.28;;;4.10;;
46653;SDS011;38960;51.074;17.004;2024-02-16T12:38:07;6.13;;;3.30;;
46653;SDS011;38960;51.074;17.004;2024-02-16T12:40:33;6.97;;;3.55;;
46653;SDS011;38960;51.074;17.004;2024-02-16T12:42:58;4.15;;;2.92;;
46653;SDS011;38960;51.074;17.004;2024-02-16T12:45:24;6.05;;;3.17;;
46653;SDS011;38960;51.074;17.004;2024-02-16T12:47:49;10.30;;;3.40;;
46653;SDS011;38960;51.074;17.004;2024-02-16T12:50:16;6.32;;;3.47;;
46653;SDS011;38960;51.074;17.004;2024-02-16T12:52:42;6.82;;;4.00;;
46653;SDS011;38960;51.074;17.004;2024-02-16T12:55:08;7.38;;;3.45;;
46653;SDS011;38960;51.074;17.004;2024-02-16T12:57:35;6.78;;;3.63;;
46653;SDS011;38960;51.074;17.004;2024-02-16T13:00:01;6.78;;;3.67;;
46653;SDS011;38960;51.074;17.004;2024-02-16T13:02:28;7.68;;;4.05;;
46653;SDS011;38960;51.074;17.004;2024-02-16T13:04:54;5.47;;;3.97;;
46653;SDS011;38960;51.074;17.004;2024-02-16T13:07:20;8.13;;;3.63;;
46653;SDS011;38960;51.074;17.004;2024-02-16T13:09:45;11.13;;;3.85;;
46653;SDS011;38960;51.074;17.004;2024-02-16T13:12:11;7.45;;;3.20;;
46653;SDS011;38960;51.074;17.004;2024-02-16T13:14:36;7.85;;;4.18;;
46653;SDS011;38960;51.074;17.004;2024-02-16T13:17:02;8.27;;;4.28;;
46653;SDS011;38960;51.074;17.004;2024-02-16T13:19:28;6.22;;;3.83;;
46653;SDS011;38960;51.074;17.004;2024-02-16T13:21:54;6.05;;;3.22;;
46653;SDS011;38960;51.074;17.004;2024-02-16T13:24:20;6.00;;;3.38;;
46653;SDS011;38960;51.074;17.004;2024-02-16T13:26:45;5.25;;;3.15;;
46653;SDS011;38960;51.074;17.004;2024-02-16T13:29:11;6.50;;;3.80;;
46653;SDS011;38960;51.074;17.004;2024-02-16T13:31:36;6.50;;;3.80;;
46653;SDS011;38960;51.074;17.004;2024-02-16T13:34:02;7.78;;;3.97;;
46653;SDS011;38960;51.074;17.004;2024-02-16T13:36:27;7.88;;;3.80;;
46653;SDS011;38960;51.074;17.004;2024-02-16T13:38:53;7.10;;;3.60;;
46653;SDS011;38960;51.074;17.004;2024-02-16T13:41:18;8.32;;;3.85;;
46653;SDS011;38960;51.074;17.004;2024-02-16T13:43:44;10.93;;;4.38;;
46653;SDS011;38960;51.074;17.004;2024-02-16T13:46:10;5.68;;;3.60;;
46653;SDS011;38960;51.074;17.004;2024-02-16T13:48:35;7.57;;;4.03;;
46653;SDS011;38960;51.074;17.004;2024-02-16T13:51:02;7.35;;;4.30;;
46653;SDS011;38960;51.074;17.004;2024-02-16T13:53:30;9.57;;;4.15;;
46653;SDS011;38960;51.074;17.004;2024-02-16T13:55:56;6.93;;;4.05;;
46653;SDS011;38960;51.074;17.004;2024-02-16T13:58:26;5.30;;;4.10;;
46653;SDS011;38960;51.074;17.004;2024-02-16T14:00:51;5.38;;;3.50;;
46653;SDS011;38960;51.074;17.004;2024-02-16T14:03:17;6.47;;;4.05;;
46653;SDS011;38960;51.074;17.004;2024-02-16T14:05:44;9.60;;;4.40;;
46653;SDS011;38960;51.074;17.004;2024-02-16T14:08:10;10.73;;;4.50;;
46653;SDS011;38960;51.074;17.004;2024-02-16T14:10:37;6.10;;;3.83;;
46653;SDS011;38960;51.074;17.004;2024-02-16T14:13:03;13.13;;;4.25;;
46653;SDS011;38960;51.074;17.004;2024-02-16T14:15:29;8.68;;;4.30;;
46653;SDS011;38960;51.074;17.004;2024-02-16T14:17:55;8.35;;;4.63;;
46653;SDS011;38960;51.074;17.004;2024-02-16T14:20:20;8.15;;;4.22;;
46653;SDS011;38960;51.074;17.004;2024-02-16T14:22:47;9.23;;;4.70;;
46653;SDS011;38960;51.074;17.004;2024-02-16T14:25:13;14.60;;;5.30;;
46653;SDS011;38960;51.074;17.004;2024-02-16T14:27:38;10.50;;;4.75;;
46653;SDS011;38960;51.074;17.004;2024-02-16T14:30:05;10.57;;;4.60;;
46653;SDS011;38960;51.074;17.004;2024-02-16T14:32:31;8.93;;;4.57;;
46653;SDS011;38960;51.074;17.004;2024-02-16T14:34:56;8.10;;;4.78;;
46653;SDS011;38960;51.074;17.004;2024-02-16T14:37:22;7.78;;;4.93;;
46653;SDS011;38960;51.074;17.004;2024-02-16T14:39:47;9.32;;;4.90;;
46653;SDS011;38960;51.074;17.004;2024-02-16T14:42:13;6.80;;;4.28;;
46653;SDS011;38960;51.074;17.004;2024-02-16T14:44:39;7.82;;;4.68;;
46653;SDS011;38960;51.074;17.004;2024-02-16T14:47:05;8.73;;;5.30;;
46653;SDS011;38960;51.074;17.004;2024-02-16T14:49:31;9.63;;;5.00;;
46653;SDS011;38960;51.074;17.004;2024-02-16T14:51:56;6.20;;;4.68;;
46653;SDS011;38960;51.074;17.004;2024-02-16T14:54:22;9.98;;;5.45;;
46653;SDS011;38960;51.074;17.004;2024-02-16T14:56:53;11.18;;;5.57;;
46653;SDS011;38960;51.074;17.004;2024-02-16T14:59:19;10.73;;;5.70;;
46653;SDS011;38960;51.074;17.004;2024-02-16T15:01:44;12.70;;;5.35;;
46653;SDS011;38960;51.074;17.004;2024-02-16T15:04:10;8.48;;;5.05;;
46653;SDS011;38960;51.074;17.004;2024-02-16T15:06:36;9.60;;;5.15;;
46653;SDS011;38960;51.074;17.004;2024-02-16T15:09:02;9.30;;;5.55;;
46653;SDS011;38960;51.074;17.004;2024-02-16T15:11:29;9.30;;;5.03;;
46653;SDS011;38960;51.074;17.004;2024-02-16T15:13:55;12.43;;;5.43;;
46653;SDS011;38960;51.074;17.004;2024-02-16T15:16:21;10.45;;;6.50;;
46653;SDS011;38960;51.074;17.004;2024-02-16T15:18:47;8.70;;;4.78;;
46653;SDS011;38960;51.074;17.004;2024-02-16T15:21:12;12.35;;;5.70;;
46653;SDS011;38960;51.074;17.004;2024-02-16T15:23:38;8.25;;;5.65;;
46653;SDS011;38960;51.074;17.004;2024-02-16T15:26:03;12.60;;;6.57;;
46653;SDS011;38960;51.074;17.004;2024-02-16T15:28:33;13.30;;;7.18;;
46653;SDS011;38960;51.074;17.004;2024-02-16T15:30:59;16.10;;;6.18;;
46653;SDS011;38960;51.074;17.004;2024-02-16T15:33:24;9.18;;;5.72;;
46653;SDS011;38960;51.074;17.004;2024-02-16T15:35:50;13.60;;;7.63;;
46653;SDS011;38960;51.074;17.004;2024-02-16T15:38:15;18.92;;;6.65;;
46653;SDS011;38960;51.074;17.004;2024-02-16T15:40:41;13.25;;;6.57;;
46653;SDS011;38960;51.074;17.004;2024-02-16T15:43:06;18.02;;;6.88;;
46653;SDS011;38960;51.074;17.004;2024-02-16T15:45:33;13.60;;;7.57;;
46653;SDS011;38960;51.074;17.004;2024-02-16T15:48:05;14.65;;;6.68;;
46653;SDS011;38960;51.074;17.004;2024-02-16T15:50:35;11.23;;;6.28;;
46653;SDS011;38960;51.074;17.004;2024-02-16T15:53:00;13.07;;;6.03;;
46653;SDS011;38960;51.074;17.004;2024-02-16T15:55:27;15.48;;;9.20;;
46653;SDS011;38960;51.074;17.004;2024-02-16T15:57:52;23.15;;;13.70;;
46653;SDS011;38960;51.074;17.004;2024-02-16T16:00:18;12.48;;;8.18;;
46653;SDS011;38960;51.074;17.004;2024-02-16T16:02:44;13.10;;;7.50;;
46653;SDS011;38960;51.074;17.004;2024-02-16T16:05:09;19.60;;;7.13;;
46653;SDS011;38960;51.074;17.004;2024-02-16T16:07:36;13.95;;;8.50;;
46653;SDS011;38960;51.074;17.004;2024-02-16T16:10:02;14.45;;;7.35;;
46653;SDS011;38960;51.074;17.004;2024-02-16T16:12:28;12.93;;;8.02;;
46653;SDS011;38960;51.074;17.004;2024-02-16T16:14:54;12.60;;;7.50;;
46653;SDS011;38960;51.074;17.004;2024-02-16T16:17:19;16.52;;;7.28;;
46653;SDS011;38960;51.074;17.004;2024-02-16T16:19:45;11.18;;;6.60;;